Terminal Aerodrome Forecast
Issued by NWS

Home | Current Version | Previous Version | Text Only | Print | Product List | Glossary On
Versions: 1 2 3 4 5 6 7 8 9 10 11 12 13 14 15 16 17 18
000
FTUS45 KABQ 281600 AAA
TAFFMN
TAF AMD
KFMN 281608Z 2816/0112 09008KT 3SM -SN BR OVC015
      TEMPO 2816/2820 1/2SM SN FG OVC006
     FM282000 10010KT 5SM -RASN BR SCT015 BKN030
     FM010100 VRB05KT 5SM BR OVC045
     FM010900 08008KT 5SM -RASN BR BKN030=

USA.gov is the U.S. government's official web portal to all federal, state and local government web resources and services.